Time;durP1;ratioP1;P1;durP2;ratioP2;P2;SDS_P1;SDS_P2;PMS_P1;PMS_P2;Temp;Humidity;BMP_temperature;BMP_pressure;BME280_temperature;BME280_humidity;BME280_pressure;Samples;Min_cycle;Max_cycle;Signal;HPM_P1;HPM_P2
2023/07/10 00:02:18;;;;;;;10.80;3.90;;;;;;;14.53;86.65;100391.59;109080;1257;71826;-65
2023/07/10 00:05:17;;;;;;;10.50;4.60;;;;;;;14.50;86.67;100392.60;109004;1256;66976;-65
2023/07/10 00:08:08;;;;;;;9.80;4.20;;;;;;;14.44;86.66;100389.96;108941;1256;70696;-65
2023/07/10 00:10:57;;;;;;;11.30;4.40;;;;;;;14.39;86.54;100389.44;109115;1257;57495;-67
2023/07/10 00:13:47;;;;;;;10.00;4.30;;;;;;;14.35;86.59;100394.95;109237;1257;60182;-70
2023/07/10 00:16:35;;;;;;;9.70;4.10;;;;;;;14.27;86.32;100391.32;109097;1256;73338;-67
2023/07/10 00:19:23;;;;;;;11.10;4.40;;;;;;;14.19;86.86;100397.20;109256;1260;67829;-67
2023/07/10 00:22:11;;;;;;;10.50;4.70;;;;;;;14.11;86.84;100393.05;109131;1258;70169;-66
2023/07/10 00:24:59;;;;;;;9.70;4.40;;;;;;;14.07;87.19;100394.67;109108;1257;59621;-68
2023/07/10 00:27:51;;;;;;;10.00;4.20;;;;;;;14.04;87.19;100397.96;109101;1256;190649;-68
2023/07/10 00:30:40;;;;;;;9.10;4.00;;;;;;;14.00;87.61;100396.56;109100;1256;71669;-65
2023/07/10 00:33:29;;;;;;;9.50;4.40;;;;;;;13.97;87.90;100398.57;109149;1256;66544;-65
2023/07/10 00:36:32;;;;;;;9.40;4.30;;;;;;;13.96;88.15;100396.02;109080;1257;71525;-66
2023/07/10 00:39:27;;;;;;;9.00;4.30;;;;;;;13.93;88.28;100396.58;109140;1257;58046;-67
2023/07/10 00:42:22;;;;;;;8.80;4.30;;;;;;;13.89;88.59;100398.21;109010;1260;60394;-67
2023/07/10 00:45:15;;;;;;;9.50;3.90;;;;;;;13.88;89.32;100397.08;109049;1260;73161;-66
2023/07/10 00:48:46;;;;;;;8.70;4.20;;;;;;;13.86;89.72;100389.33;109096;1257;66615;-69
2023/07/10 00:51:51;;;;;;;9.10;4.60;;;;;;;13.85;89.88;100384.30;109147;1258;72014;-66
2023/07/10 00:54:49;;;;;;;9.70;4.50;;;;;;;13.85;90.02;100386.77;108996;1258;59266;-68
2023/07/10 00:57:42;;;;;;;8.10;3.80;;;;;;;13.84;90.21;100385.98;109006;1256;57791;-66
2023/07/10 01:00:34;;;;;;;9.30;3.90;;;;;;;13.84;90.60;100387.29;109107;1257;73134;-67
2023/07/10 01:03:24;;;;;;;8.70;4.00;;;;;;;13.83;90.85;100391.41;109157;1256;66634;-67
2023/07/10 01:06:32;;;;;;;8.60;4.20;;;;;;;13.80;90.72;100397.52;109242;1257;73851;-67
2023/07/10 01:09:21;;;;;;;9.20;4.00;;;;;;;13.76;90.92;100401.44;109178;1257;59709;-69
2023/07/10 01:12:10;;;;;;;9.80;4.60;;;;;;;13.72;90.96;100402.00;109084;1258;60424;-69
2023/07/10 01:15:00;;;;;;;9.40;4.60;;;;;;;13.70;91.04;100404.89;109126;1260;71519;-69
2023/07/10 01:17:53;;;;;;;9.50;4.40;;;;;;;13.70;91.11;100407.20;109063;1256;67270;-70
2023/07/10 01:21:06;;;;;;;10.50;4.80;;;;;;;13.70;90.87;100410.55;109013;1257;72535;-68
2023/07/10 01:23:55;;;;;;;9.10;4.30;;;;;;;13.72;90.79;100412.31;108569;1265;60293;-68
2023/07/10 01:26:43;;;;;;;10.90;4.40;;;;;;;13.78;90.99;100411.98;108629;1265;60095;-67
2023/07/10 01:30:07;;;;;;;9.80;4.70;;;;;;;13.84;90.96;100415.03;108701;1265;71468;-65
2023/07/10 01:32:56;;;;;;;9.90;4.60;;;;;;;13.94;91.49;100419.37;108707;1265;67002;-68
2023/07/10 01:35:49;;;;;;;10.40;4.60;;;;;;;14.00;91.64;100415.42;108682;1265;72731;-65
2023/07/10 01:38:53;;;;;;;11.30;4.80;;;;;;;14.08;92.06;100406.94;108644;1265;58981;-66
2023/07/10 01:41:44;;;;;;;11.40;5.30;;;;;;;14.19;92.26;100406.48;108662;1267;58787;-69
2023/07/10 01:44:40;;;;;;;14.70;6.30;;;;;;;14.29;92.76;100399.41;108651;1265;72565;-66
2023/07/10 01:47:29;;;;;;;15.10;7.30;;;;;;;14.39;93.13;100392.31;108682;1265;69093;-67
2023/07/10 01:50:17;;;;;;;23.70;9.20;;;;;;;14.45;94.55;100384.27;108603;1266;71935;-67
2023/07/10 01:53:10;;;;;;;25.70;9.90;;;;;;;14.46;96.39;100381.67;108607;1271;58340;-66
2023/07/10 01:55:57;;;;;;;28.00;11.20;;;;;;;14.42;98.12;100377.36;108532;1265;61089;-66
2023/07/10 01:58:46;;;;;;;28.00;10.90;;;;;;;14.38;99.29;100371.27;108642;1265;73592;-64
2023/07/10 02:01:35;;;;;;;31.90;11.70;;;;;;;14.36;99.96;100370.10;108884;1258;67948;-65
2023/07/10 02:04:23;;;;;;;37.00;11.80;;;;;;;14.33;100.00;100371.95;109133;1258;72620;-66
2023/07/10 02:07:11;;;;;;;28.20;10.80;;;;;;;14.22;100.00;100362.16;109087;1258;60913;-65
2023/07/10 02:10:01;;;;;;;32.60;11.40;;;;;;;14.24;100.00;100368.96;109224;1257;60732;-66
2023/07/10 02:12:48;;;;;;;27.70;10.50;;;;;;;14.18;100.00;100371.30;109145;1257;71426;-65
2023/07/10 02:15:41;;;;;;;25.10;9.50;;;;;;;14.11;100.00;100369.33;109157;1257;68918;-64
2023/07/10 02:18:29;;;;;;;29.70;11.00;;;;;;;14.04;100.00;100366.23;109012;1256;72745;-63
2023/07/10 02:21:19;;;;;;;30.40;10.40;;;;;;;13.98;100.00;100367.45;109104;1257;57953;-64
2023/07/10 02:24:10;;;;;;;28.90;10.60;;;;;;;13.94;100.00;100369.21;109228;1257;58077;-66
2023/07/10 02:27:02;;;;;;;26.90;10.70;;;;;;;13.90;100.00;100375.78;109223;1257;73994;-66
2023/07/10 02:29:51;;;;;;;26.50;9.80;;;;;;;13.87;100.00;100376.85;109047;1260;67992;-67
2023/07/10 02:32:39;;;;;;;26.40;9.00;;;;;;;13.81;100.00;100383.23;109175;1257;71681;-65
2023/07/10 02:35:27;;;;;;;23.70;9.70;;;;;;;13.76;100.00;100376.80;109239;1256;59068;-67
2023/07/10 02:38:15;;;;;;;20.50;8.30;;;;;;;13.77;100.00;100379.80;109058;1256;59105;-68
2023/07/10 02:41:03;;;;;;;16.00;6.80;;;;;;;13.77;100.00;100379.06;109087;1256;73803;-67
2023/07/10 02:43:51;;;;;;;16.50;7.80;;;;;;;13.75;100.00;100382.85;109155;1256;66807;-67
2023/07/10 02:46:39;;;;;;;17.60;7.70;;;;;;;13.73;100.00;100387.42;109280;1257;72650;-68
2023/07/10 02:49:27;;;;;;;15.80;7.20;;;;;;;13.72;100.00;100390.36;109145;1258;59357;-67
2023/07/10 02:52:15;;;;;;;15.00;7.30;;;;;;;13.73;100.00;100389.25;109165;1257;59991;-63
2023/07/10 02:55:06;;;;;;;17.00;7.50;;;;;;;13.73;100.00;100383.02;109245;1257;73072;-64
2023/07/10 02:57:54;;;;;;;16.90;7.10;;;;;;;13.76;100.00;100387.73;109099;1258;68700;-65
2023/07/10 03:00:43;;;;;;;15.70;6.80;;;;;;;13.77;100.00;100390.09;109016;1257;72682;-63
2023/07/10 03:03:30;;;;;;;14.20;6.20;;;;;;;13.78;100.00;100391.46;109164;1257;58658;-63
2023/07/10 03:06:27;;;;;;;11.10;6.00;;;;;;;13.81;100.00;100395.69;109087;1260;59954;-66
2023/07/10 03:09:26;;;;;;;11.80;5.40;;;;;;;13.85;100.00;100396.77;109021;1261;75293;-64
2023/07/10 03:12:21;;;;;;;11.70;6.30;;;;;;;13.88;100.00;100393.67;109135;1256;66949;-66
2023/07/10 03:15:10;;;;;;;10.70;5.30;;;;;;;13.96;100.00;100394.62;109150;1256;72596;-63
2023/07/10 03:17:57;;;;;;;10.80;5.60;;;;;;;14.06;100.00;100392.86;109205;1256;58074;-65
2023/07/10 03:20:45;;;;;;;11.10;5.30;;;;;;;14.12;100.00;100398.19;109225;1256;59147;-65
2023/07/10 03:23:36;;;;;;;12.00;5.40;;;;;;;14.20;100.00;100404.98;109101;1257;73314;-65
2023/07/10 03:26:24;;;;;;;10.40;5.00;;;;;;;14.29;100.00;100401.69;109226;1256;68848;-66
2023/07/10 03:29:13;;;;;;;10.70;5.60;;;;;;;14.40;100.00;100403.98;109227;1256;72402;-66
2023/07/10 03:32:01;;;;;;;9.90;5.00;;;;;;;14.53;100.00;100406.78;109178;1256;59567;-67
2023/07/10 03:34:49;;;;;;;10.10;4.90;;;;;;;14.65;100.00;100413.16;109276;1256;59019;-67
2023/07/10 03:37:37;;;;;;;11.00;5.50;;;;;;;14.78;100.00;100415.25;109073;1256;74373;-66
2023/07/10 03:40:29;;;;;;;11.60;5.90;;;;;;;14.90;100.00;100406.20;109226;1256;67611;-67
2023/07/10 03:43:18;;;;;;;11.70;5.50;;;;;;;15.05;100.00;100406.43;109084;1257;73003;-68
2023/07/10 03:46:11;;;;;;;10.70;5.70;;;;;;;15.19;99.55;100418.15;109047;1256;58320;-71
2023/07/10 03:49:08;;;;;;;11.40;5.70;;;;;;;15.34;98.18;100417.70;108941;1256;59436;-72
2023/07/10 03:51:58;;;;;;;10.70;5.50;;;;;;;15.49;97.61;100418.08;108987;1256;71741;-71
2023/07/10 03:54:49;;;;;;;10.50;5.40;;;;;;;15.67;96.82;100412.83;108978;1256;66399;-73
2023/07/10 03:57:37;;;;;;;10.90;5.10;;;;;;;15.82;96.03;100414.50;108988;1256;71210;-71
2023/07/10 04:00:25;;;;;;;11.80;5.60;;;;;;;15.99;95.52;100421.34;109049;1256;58330;-72
2023/07/10 04:03:13;;;;;;;11.40;5.80;;;;;;;16.17;94.92;100420.36;109073;1257;60184;-69
2023/07/10 04:06:03;;;;;;;11.60;6.40;;;;;;;16.34;94.73;100415.52;109071;1256;73105;-71
2023/07/10 04:08:52;;;;;;;11.70;6.80;;;;;;;16.49;94.16;100421.77;109102;1256;66484;-71
2023/07/10 04:11:40;;;;;;;12.40;6.50;;;;;;;16.64;94.15;100415.10;109017;1256;72324;-72
2023/07/10 04:14:39;;;;;;;13.30;6.50;;;;;;;16.80;94.18;100414.44;109019;1256;60731;-71
2023/07/10 04:17:27;;;;;;;11.70;6.60;;;;;;;16.95;94.49;100409.58;108988;1257;58233;-72
2023/07/10 04:20:16;;;;;;;14.70;7.50;;;;;;;17.12;94.80;100411.27;109118;1256;73061;-71
2023/07/10 04:23:04;;;;;;;14.70;8.00;;;;;;;17.31;94.90;100402.96;109099;1257;68499;-72
2023/07/10 04:25:52;;;;;;;13.30;7.80;;;;;;;17.53;95.50;100407.58;108955;1259;72375;-73
2023/07/10 04:28:46;;;;;;;12.60;7.60;;;;;;;17.79;95.87;100406.59;108836;1259;58345;-73
2023/07/10 04:31:37;;;;;;;12.30;7.00;;;;;;;18.05;95.44;100412.49;108743;1262;60286;-73
2023/07/10 04:34:25;;;;;;;11.80;7.10;;;;;;;18.28;94.01;100417.97;108683;1264;73071;-69
2023/07/10 04:37:15;;;;;;;11.40;6.90;;;;;;;18.48;93.01;100416.51;108786;1262;66165;-70
2023/07/10 04:40:04;;;;;;;11.50;6.50;;;;;;;18.66;92.28;100418.66;108535;1262;73479;-71
2023/07/10 04:42:54;;;;;;;11.10;6.70;;;;;;;18.91;91.39;100417.70;108733;1262;59318;-72
2023/07/10 04:45:42;;;;;;;12.80;6.30;;;;;;;19.25;89.24;100421.30;108799;1262;60454;-70
2023/07/10 04:48:31;;;;;;;10.80;5.90;;;;;;;19.61;87.51;100419.63;108539;1265;73085;-72
2023/07/10 04:51:22;;;;;;;12.00;6.60;;;;;;;20.13;85.51;100419.19;108584;1265;68118;-71
2023/07/10 04:54:10;;;;;;;10.10;5.60;;;;;;;20.70;81.93;100425.10;108365;1269;71830;-71
2023/07/10 04:57:00;;;;;;;11.30;5.50;;;;;;;21.10;80.04;100427.41;108526;1267;57755;-72
2023/07/10 04:59:49;;;;;;;9.80;4.90;;;;;;;21.46;77.71;100424.31;108702;1267;60232;-73
2023/07/10 05:02:37;;;;;;;10.20;4.60;;;;;;;21.67;74.73;100421.34;108483;1263;71843;-74
2023/07/10 05:05:27;;;;;;;10.50;4.50;;;;;;;21.83;73.62;100419.73;108699;1263;66731;-73
2023/07/10 05:08:18;;;;;;;10.10;4.50;;;;;;;21.99;72.75;100420.52;108695;1264;71773;-70
2023/07/10 05:11:08;;;;;;;10.10;4.20;;;;;;;22.01;72.58;100422.83;108600;1264;58036;-66
2023/07/10 05:13:56;;;;;;;8.80;4.20;;;;;;;22.00;71.00;100417.58;108625;1263;60398;-69
2023/07/10 05:16:44;;;;;;;8.20;3.80;;;;;;;22.11;69.54;100425.88;108630;1262;73140;-68
2023/07/10 05:19:33;;;;;;;9.00;4.40;;;;;;;21.85;70.20;100429.40;108710;1260;66188;-67
2023/07/10 05:22:20;;;;;;;11.40;5.90;;;;;;;21.62;70.99;100431.23;108816;1260;73866;-66
2023/07/10 05:25:10;;;;;;;8.90;4.60;;;;;;;21.40;70.88;100429.25;109065;1256;57342;-70
2023/07/10 05:27:58;;;;;;;9.10;4.20;;;;;;;21.23;71.63;100436.37;109177;1256;58960;-66
2023/07/10 05:30:49;;;;;;;8.20;4.20;;;;;;;21.42;71.10;100436.29;108944;1256;73168;-69
2023/07/10 05:33:41;;;;;;;8.90;4.40;;;;;;;21.61;70.23;100436.63;108993;1256;68132;-68
2023/07/10 05:36:29;;;;;;;8.90;4.40;;;;;;;21.96;69.99;100438.15;109017;1256;74018;-69
2023/07/10 05:39:18;;;;;;;9.50;4.30;;;;;;;22.65;67.65;100434.70;109111;1256;57753;-65
2023/07/10 05:42:08;;;;;;;8.40;3.60;;;;;;;23.10;65.98;100435.33;109164;1257;61330;-66
2023/07/10 05:44:56;;;;;;;9.40;3.80;;;;;;;23.58;64.64;100435.52;109010;1256;71911;-64
2023/07/10 05:47:49;;;;;;;8.50;3.50;;;;;;;24.20;62.11;100423.55;109136;1256;67746;-64
2023/07/10 05:50:46;;;;;;;7.90;3.40;;;;;;;24.85;59.94;100419.52;108986;1256;72807;-67
2023/07/10 05:53:38;;;;;;;9.10;3.00;;;;;;;25.40;56.26;100422.91;108926;1259;57443;-69
2023/07/10 05:56:31;;;;;;;7.60;2.80;;;;;;;25.71;52.41;100420.06;108903;1259;59765;-66
2023/07/10 05:59:19;;;;;;;7.20;2.70;;;;;;;26.15;51.78;100423.30;108857;1263;73751;-66
2023/07/10 06:02:12;;;;;;;7.50;2.70;;;;;;;26.72;51.02;100419.11;108929;1259;68807;-70
2023/07/10 06:05:04;;;;;;;8.40;2.70;;;;;;;27.17;49.21;100411.05;108823;1259;73631;-68
2023/07/10 06:07:56;;;;;;;8.00;3.00;;;;;;;27.63;48.45;100410.36;108944;1259;57986;-67
2023/07/10 06:10:45;;;;;;;7.90;3.00;;;;;;;28.16;47.15;100410.91;108927;1259;58368;-66
2023/07/10 06:13:34;;;;;;;8.50;2.80;;;;;;;28.58;45.51;100408.98;108724;1260;73260;-68
2023/07/10 06:16:22;;;;;;;8.10;2.90;;;;;;;28.56;41.54;100411.33;108959;1259;68755;-66
2023/07/10 06:19:10;;;;;;;7.90;3.10;;;;;;;28.61;42.80;100414.82;108931;1259;73725;-65
2023/07/10 06:22:12;;;;;;;7.70;2.70;;;;;;;28.98;42.87;100413.56;108940;1259;57431;-65
2023/07/10 06:25:03;;;;;;;7.30;2.30;;;;;;;29.17;40.95;100406.38;109013;1256;58936;-69
2023/07/10 06:27:51;;;;;;;10.50;2.80;;;;;;;29.51;40.89;100399.20;109138;1256;71759;-67
2023/07/10 06:30:56;;;;;;;6.80;2.20;;;;;;;29.88;38.52;100401.15;108969;1256;67906;-66
2023/07/10 06:33:45;;;;;;;6.30;2.20;;;;;;;30.21;37.44;100397.02;109113;1256;73766;-65
2023/07/10 06:36:33;;;;;;;6.70;2.20;;;;;;;29.76;38.14;100401.02;109128;1256;57821;-66
2023/07/10 06:39:22;;;;;;;8.50;2.40;;;;;;;29.71;39.31;100398.59;109123;1256;59059;-68
2023/07/10 06:42:10;;;;;;;6.90;2.10;;;;;;;29.84;39.47;100400.74;108983;1256;71809;-67
2023/07/10 06:45:06;;;;;;;6.90;2.30;;;;;;;30.28;38.12;100400.48;109142;1256;69201;-66
2023/07/10 06:47:54;;;;;;;8.50;2.00;;;;;;;30.51;36.86;100402.23;109156;1256;71467;-65
2023/07/10 06:50:55;;;;;;;6.20;2.00;;;;;;;30.42;37.55;100402.85;108755;1261;58735;-68
2023/07/10 06:53:44;;;;;;;6.00;1.80;;;;;;;29.85;37.79;100397.64;108886;1261;60439;-68
2023/07/10 06:56:34;;;;;;;7.70;2.60;;;;;;;29.51;39.00;100401.77;108748;1262;72972;-67
2023/07/10 06:59:24;;;;;;;7.10;2.10;;;;;;;29.28;39.24;100400.71;108784;1263;67847;-71
2023/07/10 07:02:13;;;;;;;5.50;1.90;;;;;;;29.65;37.22;100398.77;108734;1262;73059;-71
2023/07/10 07:05:03;;;;;;;7.40;2.00;;;;;;;29.67;37.79;100399.81;108767;1262;58005;-69
2023/07/10 07:07:51;;;;;;;9.40;2.30;;;;;;;29.78;38.07;100393.00;108601;1263;58804;-71
2023/07/10 07:10:43;;;;;;;6.70;1.70;;;;;;;30.26;35.89;100396.70;108779;1262;73056;-71
2023/07/10 07:13:35;;;;;;;6.30;1.70;;;;;;;30.77;34.76;100394.22;108749;1264;67094;-68
2023/07/10 07:16:23;;;;;;;6.10;1.40;;;;;;;30.69;34.49;100390.13;108768;1262;71417;-68
2023/07/10 07:19:12;;;;;;;5.90;1.70;;;;;;;30.45;34.71;100383.71;108714;1262;57398;-68
2023/07/10 07:22:01;;;;;;;8.10;1.80;;;;;;;30.27;35.05;100383.88;108858;1259;60602;-67
2023/07/10 07:24:49;;;;;;;6.30;1.90;;;;;;;30.74;34.28;100384.00;108931;1259;73245;-67
2023/07/10 07:27:37;;;;;;;6.00;1.60;;;;;;;30.78;34.60;100379.58;109064;1256;67003;-71
2023/07/10 07:30:27;;;;;;;7.50;1.90;;;;;;;30.54;34.70;100380.71;109128;1256;73684;-69
2023/07/10 07:33:19;;;;;;;5.60;1.50;;;;;;;30.93;33.61;100375.48;108972;1256;57917;-68
2023/07/10 07:36:07;;;;;;;6.70;2.00;;;;;;;31.26;33.51;100376.81;109119;1256;58739;-68
2023/07/10 07:38:55;;;;;;;6.40;1.50;;;;;;;31.38;33.65;100372.89;109165;1256;73102;-69
2023/07/10 07:41:44;;;;;;;6.00;1.30;;;;;;;31.38;32.31;100371.79;109129;1256;67607;-67
2023/07/10 07:44:31;;;;;;;5.60;1.40;;;;;;;31.85;31.65;100362.39;109100;1256;73613;-68
2023/07/10 07:47:20;;;;;;;5.90;1.50;;;;;;;32.07;30.51;100356.80;109028;1257;57319;-67
2023/07/10 07:50:10;;;;;;;6.90;1.60;;;;;;;32.38;29.84;100357.92;108931;1256;60083;-68
2023/07/10 07:52:58;;;;;;;6.30;1.40;;;;;;;32.42;28.04;100357.02;109151;1256;72899;-72
2023/07/10 07:55:46;;;;;;;5.50;1.30;;;;;;;32.96;27.26;100356.08;109121;1256;67771;-67
2023/07/10 07:58:34;;;;;;;5.10;1.40;;;;;;;33.71;25.79;100347.61;109225;1256;71088;-70
2023/07/10 08:01:22;;;;;;;6.50;1.30;;;;;;;34.36;25.52;100347.95;109281;1256;57962;-69
2023/07/10 08:04:11;;;;;;;8.50;1.30;;;;;;;34.47;25.00;100345.52;109104;1256;58729;-69
2023/07/10 08:06:59;;;;;;;5.20;1.30;;;;;;;34.35;24.87;100346.30;109186;1256;71428;-68
2023/07/10 08:09:47;;;;;;;5.80;1.20;;;;;;;34.59;24.66;100345.20;109027;1256;69455;-69
2023/07/10 08:12:38;;;;;;;5.20;1.30;;;;;;;34.94;24.20;100344.40;109156;1256;73002;-69
2023/07/10 08:15:25;;;;;;;5.70;1.40;;;;;;;35.39;24.11;100340.80;109046;1256;58715;-73
2023/07/10 08:18:13;;;;;;;6.50;1.80;;;;;;;35.93;23.34;100335.89;109026;1256;59915;-67
2023/07/10 08:21:06;;;;;;;6.10;1.60;;;;;;;36.26;21.94;100328.37;109196;1256;73079;-68
2023/07/10 08:23:54;;;;;;;6.20;1.40;;;;;;;36.04;21.28;100328.98;109146;1256;69160;-70
2023/07/10 08:26:42;;;;;;;5.80;1.30;;;;;;;36.17;20.96;100325.04;108983;1257;71337;-75
2023/07/10 08:29:35;;;;;;;5.00;1.20;;;;;;;36.50;21.05;100328.59;108858;1261;58465;-74
2023/07/10 08:32:25;;;;;;;4.70;1.00;;;;;;;36.86;20.05;100329.98;108851;1261;58767;-69
2023/07/10 08:35:13;;;;;;;5.60;1.40;;;;;;;36.95;19.53;100334.13;108832;1261;72814;-71
2023/07/10 08:38:01;;;;;;;5.30;1.00;;;;;;;36.84;19.18;100338.80;108857;1261;66935;-69
2023/07/10 08:40:54;;;;;;;5.40;1.10;;;;;;;36.85;18.98;100337.48;108869;1261;73199;-70
2023/07/10 08:43:43;;;;;;;5.60;1.20;;;;;;;37.11;19.31;100344.19;108771;1261;59044;-71
2023/07/10 08:46:32;;;;;;;6.60;1.70;;;;;;;37.32;19.31;100347.13;108799;1261;60327;-70
2023/07/10 08:49:25;;;;;;;11.10;2.90;;;;;;;37.57;18.67;100346.11;108850;1261;71844;-67
2023/07/10 08:52:33;;;;;;;10.50;3.20;;;;;;;37.87;18.70;100346.86;108887;1261;68925;-66
2023/07/10 08:55:44;;;;;;;7.80;2.50;;;;;;;37.92;18.56;100342.09;108832;1261;71161;-63
2023/07/10 08:58:37;;;;;;;7.40;1.90;;;;;;;37.81;18.55;100334.70;108722;1261;57406;-68
2023/07/10 09:01:44;;;;;;;5.40;1.20;;;;;;;37.77;18.62;100327.09;109005;1257;59172;-67
2023/07/10 09:04:42;;;;;;;4.10;0.90;;;;;;;37.97;17.89;100323.27;108807;1261;74176;-68
2023/07/10 09:07:38;;;;;;;5.20;1.10;;;;;;;37.92;17.39;100321.99;108818;1260;67067;-67
2023/07/10 09:10:43;;;;;;;4.80;1.10;;;;;;;37.84;17.68;100313.98;108700;1261;72620;-68
2023/07/10 09:13:50;;;;;;;5.00;0.90;;;;;;;38.11;17.78;100301.80;108753;1262;58047;-66
2023/07/10 09:16:40;;;;;;;5.00;1.00;;;;;;;38.25;17.20;100297.96;108785;1261;59682;-67
2023/07/10 09:19:30;;;;;;;4.70;1.00;;;;;;;38.25;16.93;100299.57;108784;1260;72781;-66
2023/07/10 09:22:17;;;;;;;4.30;0.80;;;;;;;38.32;16.79;100296.25;108872;1261;68950;-69
2023/07/10 09:25:14;;;;;;;3.80;0.80;;;;;;;38.22;17.79;100294.16;108804;1262;72903;-68
2023/07/10 09:28:03;;;;;;;4.20;0.80;;;;;;;38.03;17.50;100290.29;108918;1261;57691;-70
2023/07/10 09:31:21;;;;;;;4.50;1.00;;;;;;;37.84;17.66;100286.69;108803;1261;58768;-68
2023/07/10 09:34:11;;;;;;;5.30;1.00;;;;;;;37.39;18.62;100282.59;108822;1261;74026;-67
2023/07/10 09:37:03;;;;;;;4.80;0.90;;;;;;;37.11;17.51;100275.35;108909;1256;68197;-71
2023/07/10 09:39:53;;;;;;;4.80;0.90;;;;;;;36.86;17.21;100278.42;109030;1256;72331;-71
2023/07/10 09:42:41;;;;;;;5.30;0.90;;;;;;;36.76;17.77;100276.59;109022;1257;57869;-71
2023/07/10 09:45:36;;;;;;;6.50;1.20;;;;;;;36.94;18.85;100275.74;109032;1256;59674;-70
2023/07/10 09:48:53;;;;;;;4.90;1.10;;;;;;;37.23;18.98;100276.40;108995;1256;73013;-71
2023/07/10 09:51:59;;;;;;;4.70;0.90;;;;;;;37.32;18.45;100277.07;109040;1256;66647;-69
2023/07/10 09:54:48;;;;;;;4.90;1.10;;;;;;;37.46;18.27;100272.36;109026;1257;73786;-70
2023/07/10 09:57:50;;;;;;;5.20;1.10;;;;;;;37.40;17.73;100265.48;109119;1257;57305;-71
2023/07/10 10:00:45;;;;;;;5.70;1.20;;;;;;;37.38;17.74;100263.84;109028;1257;60102;-71
2023/07/10 10:03:39;;;;;;;4.90;1.20;;;;;;;37.44;17.72;100261.56;108955;1257;72149;-69
2023/07/10 10:06:30;;;;;;;5.30;1.20;;;;;;;37.51;17.76;100254.82;109074;1257;66525;-68
2023/07/10 10:09:29;;;;;;;4.80;0.90;;;;;;;37.33;18.34;100257.40;109005;1257;73072;-74
2023/07/10 10:12:28;;;;;;;4.80;1.10;;;;;;;37.23;18.68;100258.66;109031;1256;57335;-69
2023/07/10 10:15:32;;;;;;;4.90;0.90;;;;;;;37.22;18.80;100260.33;108988;1256;62670;-66
2023/07/10 10:19:03;;;;;;;4.80;1.00;;;;;;;37.27;19.19;100260.52;109113;1256;71780;-68
2023/07/10 10:21:52;;;;;;;4.30;1.00;;;;;;;37.13;19.15;100256.98;108996;1259;67306;-68
2023/07/10 10:24:43;;;;;;;4.50;1.00;;;;;;;36.96;19.14;100249.55;108986;1259;71205;-68
2023/07/10 10:27:49;;;;;;;5.70;1.00;;;;;;;37.01;19.37;100250.94;108824;1259;57921;-72
2023/07/10 10:30:50;;;;;;;5.50;1.00;;;;;;;36.88;19.42;100255.43;108942;1259;60252;-69
2023/07/10 10:34:07;;;;;;;4.70;1.10;;;;;;;36.84;18.96;100255.80;108963;1259;74043;-68
2023/07/10 10:37:13;;;;;;;5.80;1.00;;;;;;;37.12;19.01;100257.60;108935;1259;67054;-71
2023/07/10 10:40:30;;;;;;;7.20;1.10;;;;;;;37.32;18.59;100251.45;109039;1259;72913;-70
2023/07/10 10:44:02;;;;;;;5.90;1.20;;;;;;;36.59;18.78;100244.46;108929;1260;58989;-74
2023/07/10 10:47:52;;;;;;;5.00;1.40;;;;;;;36.65;19.14;100235.94;108575;1265;59418;-74
2023/07/10 10:51:25;;;;;;;4.60;1.00;;;;;;;36.00;19.57;100236.44;107741;1276;71825;-67
2023/07/10 10:55:06;;;;;;;7.80;1.90;;;;;;;34.60;21.38;100229.99;108026;1273;68345;-67
2023/07/10 10:58:13;;;;;;;4.30;1.00;;;;;;;33.75;22.00;100220.48;107867;1274;72456;-71
2023/07/10 11:01:27;;;;;;;4.70;1.10;;;;;;;33.20;22.58;100222.58;107921;1272;57788;-69
2023/07/10 11:04:32;;;;;;;5.50;1.10;;;;;;;32.02;24.09;100217.82;107868;1272;60008;-67
2023/07/10 11:07:23;;;;;;;5.20;1.20;;;;;;;31.27;25.40;100212.58;107854;1273;72169;-70
2023/07/10 11:10:27;;;;;;;4.70;1.10;;;;;;;30.60;25.30;100220.34;107642;1274;67672;-67
2023/07/10 11:13:34;;;;;;;6.40;1.10;;;;;;;30.02;26.14;100219.61;107888;1273;72745;-68
2023/07/10 11:16:24;;;;;;;7.50;1.40;;;;;;;29.77;27.29;100212.45;108007;1272;57291;-68
2023/07/10 11:19:21;;;;;;;5.30;1.20;;;;;;;29.47;27.30;100207.77;108141;1273;61408;-66
2023/07/10 11:22:20;;;;;;;4.60;1.00;;;;;;;29.22;27.46;100208.57;108492;1266;73941;-67
2023/07/10 11:25:34;;;;;;;5.10;1.10;;;;;;;-128.00;-1.00;-1.00;105832;1267;1012933;-66
2023/07/10 11:28:28;;;;;;;6.20;1.20;;;;;;;-128.00;-1.00;-1.00;106219;1256;1013869;-68
2023/07/10 11:31:40;;;;;;;5.60;1.20;;;;;;;-128.00;-1.00;-1.00;106355;1260;1010394;-70
2023/07/10 11:34:28;;;;;;;5.60;1.00;;;;;;;-128.00;-1.00;-1.00;106375;1256;1011011;-69
2023/07/10 11:37:49;;;;;;;4.60;1.10;;;;;;;-128.00;-1.00;-1.00;106388;1256;1013387;-67
2023/07/10 11:40:38;;;;;;;4.70;1.20;;;;;;;-128.00;-1.00;-1.00;106406;1256;1012861;-70
2023/07/10 11:43:28;;;;;;;6.40;1.10;;;;;;;-128.00;-1.00;-1.00;106521;1256;1012597;-67
2023/07/10 11:46:24;;;;;;;7.00;1.50;;;;;;;-128.00;-1.00;-1.00;106511;1256;1010458;-66
2023/07/10 11:49:17;;;;;;;5.40;1.40;;;;;;;-128.00;-1.00;-1.00;106436;1256;1011022;-67
2023/07/10 11:52:18;;;;;;;6.40;1.20;;;;;;;-128.00;-1.00;-1.00;106393;1256;1012821;-67
2023/07/10 11:55:11;;;;;;;5.40;1.20;;;;;;;-128.00;-1.00;-1.00;106500;1256;1013142;-67
2023/07/10 11:58:24;;;;;;;5.90;1.50;;;;;;;-128.00;-1.00;-1.00;106410;1256;1012437;-67
2023/07/10 12:01:14;;;;;;;6.40;1.80;;;;;;;-128.00;-1.00;-1.00;106385;1256;1009345;-65
2023/07/10 12:04:12;;;;;;;5.90;1.70;;;;;;;-128.00;-1.00;-1.00;106409;1256;1011488;-70
2023/07/10 12:07:00;;;;;;;5.20;1.20;;;;;;;-128.00;-1.00;-1.00;106387;1256;1013626;-66
2023/07/10 12:09:55;;;;;;;5.60;1.40;;;;;;;-128.00;-1.00;-1.00;106495;1256;1012278;-67
2023/07/10 12:12:43;;;;;;;6.10;1.30;;;;;;;-128.00;-1.00;-1.00;106244;1260;1013701;-66
2023/07/10 12:15:32;;;;;;;6.20;1.20;;;;;;;-128.00;-1.00;-1.00;106177;1262;1009656;-68
2023/07/10 12:18:31;;;;;;;6.60;1.40;;;;;;;-128.00;-1.00;-1.00;106258;1260;1011633;-67
2023/07/10 12:21:23;;;;;;;5.30;1.30;;;;;;;-128.00;-1.00;-1.00;106219;1261;1012942;-67
2023/07/10 12:24:18;;;;;;;5.90;1.40;;;;;;;-128.00;-1.00;-1.00;106286;1260;1012104;-68
2023/07/10 12:27:10;;;;;;;5.20;1.30;;;;;;;-128.00;-1.00;-1.00;106027;1260;1012958;-68
2023/07/10 12:30:13;;;;;;;5.00;1.10;;;;;;;-128.00;-1.00;-1.00;106164;1260;1009143;-68
2023/07/10 12:33:01;;;;;;;4.50;1.10;;;;;;;-128.00;-1.00;-1.00;106220;1260;1010846;-70
2023/07/10 12:35:49;;;;;;;6.20;1.30;;;;;;;-128.00;-1.00;-1.00;106257;1260;1013245;-69
2023/07/10 12:38:38;;;;;;;6.00;1.40;;;;;;;-128.00;-1.00;-1.00;106268;1260;1012120;-75
2023/07/10 12:41:32;;;;;;;5.10;1.30;;;;;;;-128.00;-1.00;-1.00;106283;1260;1013520;-77
2023/07/10 12:44:29;;;;;;;6.10;1.50;;;;;;;-128.00;-1.00;-1.00;106463;1256;1010031;-73
2023/07/10 12:47:17;;;;;;;6.20;1.50;;;;;;;-128.00;-1.00;-1.00;106481;1258;1011964;-75
2023/07/10 12:50:09;;;;;;;7.20;1.20;;;;;;;-128.00;-1.00;-1.00;106344;1257;1012136;-73
2023/07/10 12:52:57;;;;;;;5.10;1.30;;;;;;;-128.00;-1.00;-1.00;106331;1257;1012649;-76
2023/07/10 12:55:56;;;;;;;5.00;1.10;;;;;;;-128.00;-1.00;-1.00;106376;1257;1013473;-73
2023/07/10 12:59:11;;;;;;;6.20;1.30;;;;;;;-128.00;-1.00;-1.00;106446;1257;1010307;-74
2023/07/10 13:02:24;;;;;;;4.70;1.20;;;;;;;-128.00;-1.00;-1.00;106451;1257;1010511;-75
2023/07/10 13:05:29;;;;;;;6.00;1.10;;;;;;;-128.00;-1.00;-1.00;106443;1258;1012636;-77
2023/07/10 13:08:24;;;;;;;5.00;1.20;;;;;;;-128.00;-1.00;-1.00;106420;1257;1013913;-74
2023/07/10 13:11:22;;;;;;;5.50;1.30;;;;;;;-128.00;-1.00;-1.00;106275;1258;1014222;-72
2023/07/10 13:14:35;;;;;;;5.40;1.20;;;;;;;-128.00;-1.00;-1.00;106295;1258;1010401;-71
2023/07/10 13:17:25;;;;;;;5.30;1.40;;;;;;;-128.00;-1.00;-1.00;106309;1258;1011822;-74